Time;durP1;ratioP1;P1;durP2;ratioP2;P2;SDS_P1;SDS_P2;PMS_P1;PMS_P2;Temp;Humidity;BMP_temperature;BMP_pressure;BME280_temperature;BME280_humidity;BME280_pressure;Samples;Min_cycle;Max_cycle;Signal;HPM_P1;HPM_P2
2023/04/09 00:07:30;;;;;;;28.33;14.82;;;2.00;99.90;;;;;;20739844;28;20086;-45
2023/04/09 00:17:32;;;;;;;18.40;11.02;;;1.80;99.90;;;;;;20745783;28;20073;-49
2023/04/09 00:27:34;;;;;;;19.60;10.20;;;1.60;99.90;;;;;;20721867;28;20082;-45
2023/04/09 00:37:36;;;;;;;16.40;8.82;;;1.20;99.90;;;;;;20740312;28;20037;-47
2023/04/09 00:47:38;;;;;;;24.45;13.48;;;1.10;99.90;;;;;;20743808;28;20042;-46
2023/04/09 00:57:39;;;;;;;21.95;12.82;;;1.10;99.90;;;;;;20742938;28;20029;-46
2023/04/09 01:08:02;;;;;;;20.00;11.38;;;1.00;99.90;;;;;;20742611;28;20030;-45
2023/04/09 01:18:14;;;;;;;15.68;8.07;;;1.10;99.90;;;;;;20740321;28;20041;-47
2023/04/09 01:28:42;;;;;;;10.70;6.70;;;1.30;99.90;;;;;;20740692;28;20037;-46
2023/04/09 01:38:44;;;;;;;8.43;5.43;;;1.50;99.90;;;;;;20738899;28;20045;-45
2023/04/09 01:48:48;;;;;;;9.50;6.10;;;1.50;99.90;;;;;;20735436;28;20034;-45
2023/04/09 01:58:50;;;;;;;13.23;7.55;;;1.50;99.90;;;;;;20739053;28;20030;-47
2023/04/09 02:08:53;;;;;;;12.00;6.88;;;1.50;99.90;;;;;;20737693;28;20480;-51
2023/04/09 02:19:00;;;;;;;9.57;5.65;;;1.40;99.90;;;;;;20738451;28;20061;-45
2023/04/09 02:29:02;;;;;;;13.27;6.20;;;1.40;99.90;;;;;;20736611;28;20042;-49
2023/04/09 02:39:04;;;;;;;11.52;6.95;;;1.50;99.90;;;;;;20736216;28;20034;-49
2023/04/09 02:49:05;;;;;;;10.35;5.70;;;1.50;99.90;;;;;;20729071;28;20034;-49
2023/04/09 02:59:07;;;;;;;7.70;4.43;;;1.50;99.90;;;;;;20739906;28;20099;-49
2023/04/09 03:09:10;;;;;;;11.50;6.53;;;1.50;99.90;;;;;;20751032;28;20034;-48
2023/04/09 03:19:11;;;;;;;8.60;4.93;;;1.10;99.90;;;;;;20749310;28;20041;-45
2023/04/09 03:29:16;;;;;;;11.52;6.30;;;0.90;99.90;;;;;;20748493;28;20046;-49
2023/04/09 03:39:18;;;;;;;14.40;8.48;;;1.00;99.90;;;;;;20747819;28;20041;-46
2023/04/09 03:49:20;;;;;;;13.98;7.80;;;1.20;99.90;;;;;;20748512;28;20041;-50
2023/04/09 03:59:22;;;;;;;13.13;8.65;;;1.20;99.90;;;;;;20747460;28;20026;-48
2023/04/09 04:09:24;;;;;;;15.95;9.07;;;1.00;99.90;;;;;;20745458;28;20034;-49
2023/04/09 04:19:37;;;;;;;17.38;9.38;;;0.80;99.90;;;;;;20744544;28;20053;-46
2023/04/09 04:29:39;;;;;;;14.48;8.05;;;0.70;99.90;;;;;;20744989;28;20045;-45
2023/04/09 04:39:55;;;;;;;18.83;9.43;;;0.50;99.90;;;;;;20756981;28;20041;-58
2023/04/09 04:49:57;;;;;;;15.90;8.85;;;0.30;99.90;;;;;;20743672;28;20656;-48
2023/04/09 05:00:00;;;;;;;18.17;8.75;;;0.30;99.90;;;;;;20741591;28;20041;-58
2023/04/09 05:10:02;;;;;;;17.02;9.20;;;0.50;99.90;;;;;;20740924;28;20037;-48
2023/04/09 05:20:11;;;;;;;14.90;7.72;;;0.80;99.90;;;;;;20740193;28;20049;-48
2023/04/09 05:30:22;;;;;;;13.70;7.75;;;1.00;99.90;;;;;;20739523;28;20043;-47
2023/04/09 05:40:25;;;;;;;11.90;6.93;;;1.00;99.90;;;;;;20738988;28;20371;-48
2023/04/09 05:50:28;;;;;;;14.23;7.90;;;0.90;99.90;;;;;;20738607;28;20368;-47
2023/04/09 06:00:30;;;;;;;17.35;8.57;;;0.80;99.90;;;;;;20721820;28;20153;-46
2023/04/09 06:10:32;;;;;;;12.07;7.35;;;0.70;99.90;;;;;;20735679;28;20056;-58
2023/04/09 06:20:34;;;;;;;12.40;7.93;;;0.80;99.90;;;;;;20737016;28;20097;-47
2023/04/09 06:30:36;;;;;;;9.60;6.78;;;1.30;99.90;;;;;;20737782;28;20026;-52
2023/04/09 06:40:38;;;;;;;7.53;5.57;;;2.60;99.90;;;;;;20748295;28;20049;-46
2023/04/09 06:50:40;;;;;;;5.25;4.13;;;4.00;99.90;;;;;;20751890;28;20034;-49
2023/04/09 07:00:41;;;;;;;4.78;3.63;;;4.80;99.90;;;;;;20752114;28;20064;-48
2023/04/09 07:10:43;;;;;;;5.90;4.10;;;5.40;99.90;;;;;;20750178;28;20038;-51
2023/04/09 07:20:45;;;;;;;6.93;4.63;;;5.60;99.90;;;;;;20750475;28;20042;-46
2023/04/09 07:30:46;;;;;;;6.43;4.45;;;5.40;99.90;;;;;;20751117;28;20030;-50
2023/04/09 07:40:48;;;;;;;7.47;4.70;;;5.00;99.90;;;;;;20748288;28;20368;-50
2023/04/09 07:50:50;;;;;;;6.10;4.85;;;4.60;99.90;;;;;;20748334;28;20030;-52
2023/04/09 08:00:51;;;;;;;8.38;6.13;;;4.50;99.90;;;;;;20747497;28;20041;-49
2023/04/09 08:10:53;;;;;;;7.80;5.40;;;4.60;99.90;;;;;;20745477;28;20475;-50
2023/04/09 08:20:56;;;;;;;7.93;5.22;;;4.80;99.90;;;;;;20744955;28;20108;-60
2023/04/09 08:30:57;;;;;;;6.13;4.47;;;5.30;99.90;;;;;;20744908;28;20502;-47
2023/04/09 08:40:59;;;;;;;5.93;4.22;;;6.30;99.90;;;;;;20744481;28;20092;-61
2023/04/09 08:51:01;;;;;;;4.53;3.83;;;8.40;99.90;;;;;;20743887;28;20363;-59
2023/04/09 09:01:03;;;;;;;6.57;5.28;;;7.70;99.90;;;;;;20742384;28;20041;-60
2023/04/09 09:11:04;;;;;;;7.60;6.00;;;7.00;99.90;;;;;;20739301;28;20044;-59
2023/04/09 09:21:13;;;;;;;8.27;6.70;;;6.50;99.90;;;;;;20741404;28;20526;-46
2023/04/09 09:31:17;;;;;;;8.50;6.45;;;6.10;99.90;;;;;;20740493;28;20030;-60
2023/04/09 09:41:19;;;;;;;10.25;6.70;;;6.40;99.90;;;;;;20740373;28;20029;-60
2023/04/09 09:51:28;;;;;;;7.95;6.25;;;6.90;99.90;;;;;;20740026;28;20042;-49
2023/04/09 10:01:30;;;;;;;10.02;7.82;;;6.80;99.90;;;;;;20739311;28;20096;-46
2023/04/09 10:11:35;;;;;;;11.38;7.32;;;6.80;99.90;;;;;;20744422;28;20038;-49
2023/04/09 10:21:48;;;;;;;10.63;7.72;;;7.30;99.90;;;;;;20757603;28;20053;-60
2023/04/09 10:31:52;;;;;;;9.90;7.18;;;7.80;99.90;;;;;;20754333;28;20029;-46
2023/04/09 10:41:55;;;;;;;10.05;7.85;;;6.90;99.90;;;;;;20753421;28;20049;-51
2023/04/09 10:52:06;;;;;;;10.23;7.82;;;6.50;99.90;;;;;;20753291;28;20107;-48
2023/04/09 11:02:16;;;;;;;11.70;8.27;;;7.00;99.90;;;;;;20752049;28;20042;-59
2023/04/09 11:12:18;;;;;;;12.13;9.57;;;6.40;99.90;;;;;;20751154;28;20296;-49
2023/04/09 11:22:19;;;;;;;15.55;11.43;;;5.60;99.90;;;;;;20750566;28;20044;-48
2023/04/09 11:32:21;;;;;;;16.10;11.35;;;5.60;99.90;;;;;;20749691;28;20030;-48
2023/04/09 11:42:24;;;;;;;14.95;11.10;;;5.50;99.90;;;;;;20748993;28;20549;-47
2023/04/09 11:52:26;;;;;;;15.77;10.73;;;5.30;99.90;;;;;;20748563;28;20029;-57
2023/04/09 12:02:29;;;;;;;12.68;7.78;;;5.90;99.90;;;;;;20759951;28;20065;-49
2023/04/09 12:12:30;;;;;;;11.93;8.27;;;7.20;99.90;;;;;;20744111;28;20045;-59
2023/04/09 12:22:32;;;;;;;8.80;7.40;;;6.90;99.90;;;;;;20746191;28;20092;-60
2023/04/09 12:32:34;;;;;;;9.75;7.07;;;7.60;99.90;;;;;;20744137;28;20037;-46
2023/04/09 12:42:35;;;;;;;10.25;7.20;;;7.40;99.90;;;;;;20744039;28;20541;-51
2023/04/09 12:52:37;;;;;;;12.02;8.55;;;6.70;99.90;;;;;;20743968;28;20040;-48
2023/04/09 13:02:39;;;;;;;11.90;7.90;;;6.40;99.90;;;;;;20740224;28;20376;-51
2023/04/09 13:12:40;;;;;;;11.77;8.95;;;6.20;99.90;;;;;;20741665;28;20050;-50
2023/04/09 13:22:45;;;;;;;11.60;9.15;;;6.00;99.90;;;;;;20741787;28;20072;-47
2023/04/09 13:32:47;;;;;;;13.10;8.65;;;6.00;99.90;;;;;;20741811;28;20502;-50
2023/04/09 13:42:49;;;;;;;10.57;8.15;;;6.10;99.90;;;;;;20739974;28;20030;-50
2023/04/09 13:52:50;;;;;;;10.68;8.18;;;6.30;99.90;;;;;;20739550;28;20045;-51
2023/04/09 14:02:53;;;;;;;10.40;8.30;;;6.80;99.90;;;;;;20747220;28;20104;-60
2023/04/09 14:12:55;;;;;;;9.88;7.82;;;7.70;99.90;;;;;;20736117;28;20092;-47
2023/04/09 14:22:56;;;;;;;10.07;7.13;;;7.80;99.90;;;;;;20738434;28;20438;-59
2023/04/09 14:32:58;;;;;;;8.75;6.93;;;7.80;99.90;;;;;;20738492;28;20033;-48
2023/04/09 14:43:00;;;;;;;10.93;7.80;;;7.60;99.90;;;;;;20737896;28;20042;-49
2023/04/09 14:53:03;;;;;;;10.32;7.85;;;7.20;99.90;;;;;;20737485;28;20038;-50
2023/04/09 15:03:05;;;;;;;9.45;7.63;;;6.50;99.90;;;;;;20752282;28;20537;-49
2023/04/09 15:13:06;;;;;;;10.02;7.97;;;5.90;99.90;;;;;;20751235;28;20092;-50
2023/04/09 15:23:09;;;;;;;11.52;8.95;;;5.60;99.90;;;;;;20750537;28;20109;-47
2023/04/09 15:33:12;;;;;;;10.02;7.28;;;5.50;99.90;;;;;;20748831;28;20034;-55
2023/04/09 15:43:13;;;;;;;10.68;7.80;;;5.40;99.90;;;;;;20749166;28;20479;-49
2023/04/09 15:53:15;;;;;;;10.70;7.45;;;5.30;99.90;;;;;;20748570;28;20022;-52
2023/04/09 16:03:18;;;;;;;10.80;7.82;;;5.20;99.90;;;;;;20739762;28;20030;-51
2023/04/09 16:13:19;;;;;;;12.35;8.07;;;5.30;99.90;;;;;;20742860;28;20088;-58
2023/04/09 16:23:23;;;;;;;10.05;7.78;;;5.10;99.90;;;;;;20746011;28;20111;-49
2023/04/09 16:33:24;;;;;;;9.80;7.47;;;5.00;99.90;;;;;;20743194;28;20040;-48
2023/04/09 16:43:26;;;;;;;10.23;7.13;;;5.00;99.90;;;;;;20744397;28;20030;-50
2023/04/09 16:53:27;;;;;;;8.82;6.70;;;5.00;99.90;;;;;;20743831;28;20038;-58
2023/04/09 17:03:29;;;;;;;9.35;6.80;;;4.80;99.90;;;;;;20743282;28;20038;-46
2023/04/09 17:13:34;;;;;;;8.65;6.32;;;4.60;99.90;;;;;;20741961;28;20038;-50
2023/04/09 17:23:36;;;;;;;10.93;6.45;;;4.40;99.90;;;;;;20741164;28;20388;-59
2023/04/09 17:33:38;;;;;;;7.88;6.03;;;4.30;99.90;;;;;;20741102;28;20132;-58
2023/04/09 17:43:40;;;;;;;8.38;6.30;;;4.20;99.90;;;;;;20738616;28;20041;-50
2023/04/09 17:53:42;;;;;;;10.82;6.32;;;4.10;99.90;;;;;;20740103;28;20096;-48
2023/04/09 18:03:47;;;;;;;9.20;6.30;;;4.00;99.90;;;;;;20739546;28;20038;-58
2023/04/09 18:13:52;;;;;;;10.13;6.88;;;4.00;99.90;;;;;;20738647;28;20061;-51
2023/04/09 18:23:54;;;;;;;8.55;6.50;;;3.90;99.90;;;;;;20738435;28;20038;-50
2023/04/09 18:33:55;;;;;;;11.35;7.05;;;3.80;99.90;;;;;;20761487;28;20479;-47
2023/04/09 18:43:57;;;;;;;9.73;7.30;;;3.80;99.90;;;;;;20752483;28;20088;-49
2023/04/09 18:53:59;;;;;;;9.23;6.63;;;3.70;99.90;;;;;;20751757;28;20561;-50
2023/04/09 19:04:01;;;;;;;9.13;5.35;;;3.70;99.90;;;;;;20750653;28;20029;-54
2023/04/09 19:14:03;;;;;;;7.88;5.30;;;3.60;99.90;;;;;;20751132;28;20054;-49
2023/04/09 19:24:04;;;;;;;6.47;4.95;;;3.50;99.90;;;;;;20750413;28;20088;-48
2023/04/09 19:34:09;;;;;;;6.07;4.05;;;3.50;99.90;;;;;;20763626;28;20034;-58
2023/04/09 19:44:11;;;;;;;7.18;4.88;;;3.50;99.90;;;;;;20747601;28;20034;-46
2023/04/09 19:54:14;;;;;;;6.53;4.47;;;3.30;99.90;;;;;;20748556;28;20026;-47
2023/04/09 20:04:16;;;;;;;6.53;4.57;;;3.00;99.90;;;;;;20747902;28;20042;-50
2023/04/09 20:14:18;;;;;;;8.10;5.63;;;2.90;99.90;;;;;;20746710;28;20121;-49
2023/04/09 20:24:21;;;;;;;7.82;4.97;;;2.60;99.90;;;;;;20746163;28;20092;-47
2023/04/09 20:34:25;;;;;;;7.57;4.97;;;2.50;99.90;;;;;;20745698;28;20438;-58
2023/04/09 20:44:27;;;;;;;9.98;4.85;;;2.30;99.90;;;;;;20744562;28;20046;-50
2023/04/09 20:54:29;;;;;;;7.97;5.22;;;2.30;99.90;;;;;;20741774;28;20499;-57
2023/04/09 21:04:31;;;;;;;8.55;5.43;;;2.10;99.90;;;;;;20743208;28;20037;-46
2023/04/09 21:14:33;;;;;;;7.88;4.85;;;2.10;99.90;;;;;;20729926;28;20135;-46
2023/04/09 21:24:35;;;;;;;6.93;4.55;;;2.00;99.90;;;;;;20741759;28;20383;-48
2023/04/09 21:34:38;;;;;;;6.82;4.80;;;1.90;99.90;;;;;;20741502;28;20091;-47
2023/04/09 21:44:40;;;;;;;7.82;5.13;;;1.80;99.90;;;;;;20740364;28;20108;-51
2023/04/09 21:54:45;;;;;;;8.63;5.85;;;1.60;99.90;;;;;;20739916;28;20083;-50
2023/04/09 22:04:46;;;;;;;6.97;4.78;;;1.50;99.90;;;;;;20739644;28;20391;-48
2023/04/09 22:14:48;;;;;;;6.65;4.25;;;1.40;99.90;;;;;;20738681;28;20065;-46
2023/04/09 22:24:50;;;;;;;7.38;4.80;;;1.30;99.90;;;;;;20738516;28;20407;-47
2023/04/09 22:34:52;;;;;;;7.90;5.10;;;1.10;99.90;;;;;;20738631;28;20034;-49
2023/04/09 22:44:54;;;;;;;7.80;5.10;;;0.70;99.90;;;;;;20739127;28;20030;-46
2023/04/09 22:54:56;;;;;;;7.93;4.90;;;0.60;99.90;;;;;;20737207;28;20062;-50
2023/04/09 23:04:58;;;;;;;7.38;5.18;;;0.50;99.90;;;;;;20737164;28;20038;-45
2023/04/09 23:15:00;;;;;;;9.80;5.50;;;0.40;99.90;;;;;;20737717;28;20398;-47
2023/04/09 23:25:02;;;;;;;8.27;5.13;;;0.40;99.90;;;;;;20749601;28;20053;-50
2023/04/09 23:35:05;;;;;;;6.97;4.53;;;0.40;99.90;;;;;;20739423;28;20034;-46
2023/04/09 23:45:07;;;;;;;6.80;4.38;;;0.40;99.90;;;;;;20749446;28;20391;-46
2023/04/09 23:55:09;;;;;;;8.30;4.65;;;0.40;99.90;;;;;;20748665;28;20547;-49
